createdAt,value
2017-08-16T00:02:15.503Z,18.57
2017-08-16T00:04:42.083Z,21.23
2017-08-16T00:07:09.138Z,18.10
2017-08-16T00:09:35.616Z,23.87
2017-08-16T00:12:02.114Z,22.57
2017-08-16T00:14:28.911Z,26.27
2017-08-16T00:16:55.401Z,27.07
2017-08-16T00:19:21.869Z,25.40
2017-08-16T00:21:48.310Z,29.17
2017-08-16T00:24:14.841Z,29.27
2017-08-16T00:26:41.660Z,29.63
2017-08-16T00:29:08.173Z,29.83
2017-08-16T00:31:34.680Z,36.20
2017-08-16T00:34:01.161Z,33.60
2017-08-16T00:36:27.650Z,33.73
2017-08-16T00:38:54.162Z,38.67
2017-08-16T00:41:20.703Z,39.73
2017-08-16T00:43:47.159Z,39.50
2017-08-16T00:46:13.711Z,36.17
2017-08-16T00:48:40.288Z,45.97
2017-08-16T00:51:06.878Z,44.53
2017-08-16T00:53:33.414Z,42.53
2017-08-16T00:55:59.989Z,43.27
2017-08-16T00:58:26.499Z,42.77
2017-08-16T01:00:52.973Z,42.10
2017-08-16T01:03:19.499Z,43.07
2017-08-16T01:05:45.920Z,40.50
2017-08-16T01:08:12.385Z,43.23
2017-08-16T01:10:38.866Z,45.53
2017-08-16T01:13:05.319Z,42.23
2017-08-16T01:15:31.731Z,43.57
2017-08-16T01:17:58.189Z,45.00
2017-08-16T01:20:24.675Z,42.03
2017-08-16T01:22:51.184Z,46.40
2017-08-16T01:25:17.635Z,40.87
2017-08-16T01:27:44.210Z,39.80
2017-08-16T01:30:10.716Z,43.70
2017-08-16T01:32:37.202Z,41.60
2017-08-16T01:35:03.671Z,42.43
2017-08-16T01:37:30.118Z,46.27
2017-08-16T01:39:56.651Z,44.50
2017-08-16T01:42:23.129Z,46.10
2017-08-16T01:44:49.642Z,42.47
2017-08-16T01:47:16.065Z,42.40
2017-08-16T01:49:42.576Z,44.10
2017-08-16T01:52:09.006Z,43.23
2017-08-16T01:54:35.578Z,47.60
2017-08-16T01:57:02.106Z,48.60
2017-08-16T01:59:28.824Z,42.67
2017-08-16T02:01:55.255Z,44.03
2017-08-16T02:04:21.749Z,44.13
2017-08-16T02:06:48.278Z,46.50
2017-08-16T02:09:14.778Z,46.03
2017-08-16T02:11:41.295Z,45.53
2017-08-16T02:14:07.791Z,44.10
2017-08-16T02:16:34.280Z,43.30
2017-08-16T02:19:01.167Z,42.10
2017-08-16T02:21:27.628Z,43.10
2017-08-16T02:23:54.128Z,42.47
2017-08-16T02:26:20.976Z,44.20
2017-08-16T02:28:47.679Z,40.37
2017-08-16T02:31:14.155Z,40.47
2017-08-16T02:33:40.670Z,39.00
2017-08-16T02:36:07.134Z,38.07
2017-08-16T02:38:33.624Z,39.70
2017-08-16T02:41:00.137Z,37.13
2017-08-16T02:43:26.635Z,38.13
2017-08-16T02:45:53.125Z,42.20
2017-08-16T02:48:19.807Z,39.23
2017-08-16T02:50:46.434Z,39.40
2017-08-16T02:53:12.952Z,38.60
2017-08-16T02:55:39.453Z,39.37
2017-08-16T02:58:06.008Z,41.07
2017-08-16T03:00:32.528Z,34.63
2017-08-16T03:02:59.048Z,33.77
2017-08-16T03:05:25.514Z,40.33
2017-08-16T03:07:52.066Z,38.20
2017-08-16T03:10:18.670Z,38.90
2017-08-16T03:12:45.211Z,36.07
2017-08-16T03:15:11.773Z,37.40
2017-08-16T03:17:38.375Z,37.87
2017-08-16T03:20:04.962Z,39.73
2017-08-16T03:22:31.542Z,37.40
2017-08-16T03:24:58.064Z,37.97
2017-08-16T03:27:24.629Z,36.03
2017-08-16T03:29:51.608Z,35.07
2017-08-16T03:32:18.172Z,35.47
2017-08-16T03:34:44.709Z,34.77
2017-08-16T03:37:11.204Z,29.83
2017-08-16T03:39:37.795Z,35.97
2017-08-16T03:42:04.383Z,36.63
2017-08-16T03:44:30.956Z,37.23
2017-08-16T03:46:57.513Z,38.03
2017-08-16T03:49:24.000Z,38.90
2017-08-16T03:51:50.482Z,37.00
2017-08-16T03:54:17.056Z,41.67
2017-08-16T03:56:43.579Z,41.67
2017-08-16T03:59:10.119Z,44.87
2017-08-16T04:01:36.651Z,43.17
2017-08-16T04:04:03.227Z,46.37
2017-08-16T04:06:29.805Z,42.60
2017-08-16T04:08:56.319Z,43.30
2017-08-16T04:11:22.919Z,38.80
2017-08-16T04:13:49.511Z,41.07
2017-08-16T04:16:16.049Z,45.27
2017-08-16T04:18:42.627Z,44.70
2017-08-16T04:21:09.195Z,45.27
2017-08-16T04:23:35.790Z,45.20
2017-08-16T04:26:02.355Z,46.13
2017-08-16T04:28:28.891Z,48.00
2017-08-16T04:30:55.500Z,44.17
2017-08-16T04:33:22.073Z,50.47
2017-08-16T04:35:49.015Z,47.07
2017-08-16T04:38:15.571Z,47.63
2017-08-16T04:40:42.130Z,47.60
2017-08-16T04:43:08.621Z,54.70
2017-08-16T04:45:35.206Z,50.90
2017-08-16T04:48:01.733Z,51.40
2017-08-16T04:50:28.272Z,47.23
2017-08-16T04:52:54.807Z,49.33
2017-08-16T04:55:21.390Z,53.20
2017-08-16T04:57:47.935Z,50.90
2017-08-16T05:00:14.513Z,53.23
2017-08-16T05:02:41.158Z,51.50
2017-08-16T05:05:08.701Z,54.30
2017-08-16T05:07:35.285Z,50.30
2017-08-16T05:10:01.810Z,51.73
2017-08-16T05:12:28.431Z,47.60
2017-08-16T05:14:55.030Z,49.20
2017-08-16T05:17:21.569Z,47.83
2017-08-16T05:19:48.210Z,49.83
2017-08-16T05:22:14.785Z,46.30
2017-08-16T05:24:41.347Z,50.80
2017-08-16T05:27:07.914Z,48.33
2017-08-16T05:29:35.518Z,51.57
2017-08-16T05:32:02.067Z,51.47
2017-08-16T05:34:41.499Z,45.20
2017-08-16T05:37:07.999Z,48.83
2017-08-16T05:39:35.396Z,47.07
2017-08-16T05:42:01.876Z,50.83
2017-08-16T05:44:28.312Z,42.60
2017-08-16T05:46:54.831Z,49.17
2017-08-16T05:49:21.871Z,50.03
2017-08-16T05:51:48.332Z,51.03
2017-08-16T05:54:14.832Z,51.43
2017-08-16T05:56:41.271Z,47.40
2017-08-16T05:59:07.686Z,46.07
2017-08-16T06:01:34.143Z,49.50
2017-08-16T06:04:00.861Z,53.30
2017-08-16T06:06:28.007Z,49.07
2017-08-16T06:08:54.510Z,46.70
2017-08-16T06:11:21.010Z,51.73
2017-08-16T06:13:47.463Z,49.40
2017-08-16T06:16:13.954Z,49.90
2017-08-16T06:18:40.371Z,51.03
2017-08-16T06:21:06.884Z,49.97
2017-08-16T06:23:33.421Z,49.50
2017-08-16T06:25:59.902Z,45.50
2017-08-16T06:28:26.416Z,47.97
2017-08-16T06:30:52.928Z,46.37
2017-08-16T06:33:19.391Z,51.63
2017-08-16T06:35:46.063Z,49.20
2017-08-16T06:38:12.563Z,45.23
2017-08-16T06:40:39.416Z,48.33
2017-08-16T06:43:06.145Z,46.13
2017-08-16T06:45:33.129Z,43.87
2017-08-16T06:47:59.658Z,49.97
2017-08-16T06:50:26.173Z,46.00
2017-08-16T06:52:52.660Z,43.73
2017-08-16T06:55:19.143Z,41.90
2017-08-16T06:57:47.115Z,43.20
2017-08-16T07:00:13.630Z,44.60
2017-08-16T07:02:40.059Z,45.00
2017-08-16T07:05:06.518Z,41.73
2017-08-16T07:07:33.002Z,42.20
2017-08-16T07:10:01.699Z,44.90
2017-08-16T07:12:34.750Z,39.87
2017-08-16T07:15:04.448Z,40.63
2017-08-16T07:17:30.999Z,38.23
2017-08-16T07:19:57.583Z,36.90
2017-08-16T07:22:24.215Z,36.97
2017-08-16T07:24:50.876Z,34.20
2017-08-16T07:27:17.515Z,37.97
2017-08-16T07:29:50.056Z,35.27
2017-08-16T07:32:16.839Z,36.43
2017-08-16T07:34:43.471Z,34.87
2017-08-16T07:37:10.034Z,32.97
2017-08-16T07:39:37.943Z,32.87
2017-08-16T07:42:11.567Z,31.30
2017-08-16T07:44:43.591Z,33.90
2017-08-16T07:47:10.428Z,33.40
2017-08-16T07:49:43.235Z,36.07
2017-08-16T07:52:09.851Z,36.60
2017-08-16T07:54:36.833Z,33.93
2017-08-16T07:57:10.749Z,29.57
2017-08-16T07:59:37.697Z,32.20
2017-08-16T08:02:06.822Z,30.80
2017-08-16T08:04:40.132Z,28.73
2017-08-16T08:07:07.684Z,28.13
2017-08-16T08:09:36.509Z,27.57
2017-08-16T08:12:03.517Z,28.50
2017-08-16T08:14:32.602Z,27.30
2017-08-16T08:17:00.782Z,27.20
2017-08-16T08:19:31.236Z,28.87
2017-08-16T08:22:00.480Z,26.77
2017-08-16T08:24:28.043Z,24.30
2017-08-16T08:26:56.222Z,20.17
2017-08-16T08:29:24.528Z,22.33
2017-08-16T08:31:51.769Z,28.27
2017-08-16T08:34:19.671Z,30.60
2017-08-16T08:36:47.624Z,31.83
2017-08-16T08:39:14.361Z,32.20
2017-08-16T08:41:45.917Z,31.20
2017-08-16T08:44:12.515Z,30.30
2017-08-16T08:46:39.040Z,29.57
2017-08-16T08:49:05.933Z,28.93
2017-08-16T08:51:33.165Z,28.30
2017-08-16T08:54:08.218Z,25.77
2017-08-16T08:56:40.080Z,24.57
2017-08-16T08:59:06.691Z,24.33
2017-08-16T09:01:33.269Z,25.00
2017-08-16T09:04:01.702Z,22.53
2017-08-16T09:06:28.538Z,20.57
2017-08-16T09:08:55.909Z,19.77
2017-08-16T09:11:22.522Z,18.53
2017-08-16T09:13:51.126Z,21.73
2017-08-16T09:16:23.811Z,21.40
2017-08-16T09:18:50.527Z,19.97
2017-08-16T09:21:22.498Z,19.70
2017-08-16T09:23:51.149Z,19.73
2017-08-16T09:26:18.513Z,18.93
2017-08-16T09:28:45.140Z,16.40
2017-08-16T09:31:11.734Z,15.97
2017-08-16T09:33:38.280Z,16.10
2017-08-16T09:36:04.969Z,13.17
2017-08-16T09:38:31.801Z,14.33
2017-08-16T09:40:58.807Z,14.80
2017-08-16T09:43:26.335Z,14.90
2017-08-16T09:45:52.956Z,13.83
2017-08-16T09:48:24.915Z,11.60
2017-08-16T09:50:51.461Z,13.70
2017-08-16T09:53:18.096Z,14.97
2017-08-16T09:55:44.881Z,13.87
2017-08-16T09:58:12.509Z,13.70
2017-08-16T10:00:39.287Z,15.60
2017-08-16T10:03:05.922Z,14.97
2017-08-16T10:05:32.480Z,17.13
2017-08-16T10:07:59.071Z,16.00
2017-08-16T10:10:25.687Z,15.60
2017-08-16T10:15:26.015Z,16.87
2017-08-16T10:17:52.625Z,15.80
2017-08-16T10:20:19.254Z,17.00
2017-08-16T10:22:45.862Z,17.97
2017-08-16T10:25:12.359Z,16.23
2017-08-16T10:27:38.871Z,16.13
2017-08-16T10:30:05.840Z,15.63
2017-08-16T10:32:32.314Z,14.20
2017-08-16T10:34:58.812Z,13.83
2017-08-16T10:37:25.315Z,13.70
2017-08-16T10:39:51.864Z,11.70
2017-08-16T10:42:18.494Z,12.30
2017-08-16T10:44:45.053Z,12.20
2017-08-16T10:47:11.666Z,12.00
2017-08-16T10:49:38.761Z,12.13
2017-08-16T10:52:05.388Z,11.50
2017-08-16T10:54:32.013Z,11.83
2017-08-16T10:57:02.772Z,12.80
2017-08-16T10:59:34.512Z,11.77
2017-08-16T11:02:01.347Z,11.40
2017-08-16T11:04:33.123Z,10.27
2017-08-16T11:06:59.742Z,10.87
2017-08-16T11:09:26.592Z,9.83
2017-08-16T11:11:53.291Z,9.07
2017-08-16T11:14:19.996Z,9.47
2017-08-16T11:16:52.806Z,10.30
2017-08-16T11:21:51.552Z,8.40
2017-08-16T11:24:22.150Z,8.90
2017-08-16T11:26:48.748Z,9.17
2017-08-16T11:29:15.370Z,8.97
2017-08-16T11:31:42.477Z,9.40
2017-08-16T11:34:09.185Z,9.23
2017-08-16T11:36:36.037Z,9.63
2017-08-16T11:39:02.742Z,7.80
2017-08-16T11:41:30.261Z,8.47
2017-08-16T11:43:57.024Z,8.67
2017-08-16T11:46:23.687Z,8.67
2017-08-16T11:48:50.436Z,9.17
2017-08-16T11:51:17.097Z,8.77
2017-08-16T11:53:43.716Z,9.80
2017-08-16T11:56:10.551Z,9.73
2017-08-16T11:58:37.256Z,8.57
2017-08-16T12:01:03.923Z,8.40
2017-08-16T12:03:31.308Z,8.37
2017-08-16T12:05:58.011Z,7.87
2017-08-16T12:08:24.668Z,8.13
2017-08-16T12:10:51.391Z,7.60
2017-08-16T12:13:20.049Z,8.20
2017-08-16T12:15:50.408Z,8.47
2017-08-16T12:18:17.557Z,8.13
2017-08-16T12:20:47.512Z,8.23
2017-08-16T12:23:18.846Z,7.77
2017-08-16T12:25:50.684Z,7.57
2017-08-16T12:28:17.951Z,7.20
2017-08-16T12:30:44.624Z,6.80
2017-08-16T12:33:12.482Z,7.60
2017-08-16T12:35:39.247Z,7.33
2017-08-16T12:38:06.295Z,8.37
2017-08-16T12:40:44.401Z,7.40
2017-08-16T12:43:12.239Z,8.10
2017-08-16T12:45:38.929Z,8.53
2017-08-16T12:48:05.591Z,7.90
2017-08-16T12:50:32.218Z,7.60
2017-08-16T12:52:58.869Z,8.20
2017-08-16T12:55:25.649Z,7.20
2017-08-16T12:57:58.603Z,7.93
2017-08-16T13:00:31.615Z,7.43
2017-08-16T13:02:58.247Z,7.40
2017-08-16T13:05:25.157Z,7.53
2017-08-16T13:07:51.957Z,7.07
2017-08-16T13:10:18.586Z,7.00
2017-08-16T13:12:45.279Z,7.10
2017-08-16T13:15:11.853Z,6.17
2017-08-16T13:17:38.502Z,6.13
2017-08-16T13:31:00.568Z,5.90
2017-08-16T13:33:39.401Z,6.13
2017-08-16T13:38:52.623Z,6.43
2017-08-16T13:41:24.265Z,6.00
2017-08-16T13:43:50.683Z,5.80
2017-08-16T13:46:17.064Z,6.87
2017-08-16T13:48:43.462Z,6.80
2017-08-16T13:51:09.837Z,6.27
2017-08-16T13:53:36.261Z,6.70
2017-08-16T13:56:02.691Z,6.47
2017-08-16T13:58:29.050Z,5.53
2017-08-16T14:00:55.444Z,6.00
2017-08-16T14:03:21.838Z,5.70
2017-08-16T14:05:48.228Z,5.80
2017-08-16T14:08:14.616Z,5.20
2017-08-16T14:10:40.992Z,5.43
2017-08-16T14:13:07.439Z,5.83
2017-08-16T14:15:33.884Z,5.40
2017-08-16T14:18:00.281Z,5.80
2017-08-16T14:20:26.679Z,5.33
2017-08-16T14:22:53.082Z,5.47
2017-08-16T14:25:19.476Z,5.33
2017-08-16T14:27:45.826Z,5.93
2017-08-16T14:30:12.192Z,5.83
2017-08-16T14:32:38.596Z,5.33
2017-08-16T14:35:04.983Z,5.30
2017-08-16T14:37:31.365Z,5.90
2017-08-16T14:39:57.789Z,5.60
2017-08-16T14:42:24.181Z,5.33
2017-08-16T14:44:50.573Z,5.50
2017-08-16T14:47:17.024Z,5.10
2017-08-16T14:49:43.408Z,5.00
2017-08-16T14:52:09.792Z,5.80
2017-08-16T14:54:36.207Z,5.33
2017-08-16T14:57:02.619Z,5.83
2017-08-16T14:59:29.031Z,4.70
2017-08-16T15:01:55.437Z,5.20
2017-08-16T15:04:21.847Z,4.70
2017-08-16T15:06:48.246Z,4.17
2017-08-16T15:09:14.640Z,4.67
2017-08-16T15:11:41.016Z,4.03
2017-08-16T15:14:07.404Z,4.60
2017-08-16T15:16:34.126Z,4.20
2017-08-16T15:19:00.560Z,4.70
2017-08-16T15:21:27.002Z,4.83
2017-08-16T15:23:53.468Z,4.43
2017-08-16T15:26:19.881Z,3.97
2017-08-16T15:28:46.287Z,4.47
2017-08-16T15:31:12.693Z,4.40
2017-08-16T15:33:39.077Z,4.67
2017-08-16T15:36:05.490Z,4.23
2017-08-16T15:38:31.925Z,4.13
2017-08-16T15:40:58.319Z,4.80
2017-08-16T15:43:24.696Z,4.63
2017-08-16T15:45:51.075Z,3.97
2017-08-16T15:48:17.484Z,4.37
2017-08-16T15:50:43.896Z,4.40
2017-08-16T15:53:10.329Z,4.00
2017-08-16T15:55:36.712Z,3.90
2017-08-16T15:58:03.086Z,4.10
2017-08-16T16:00:29.452Z,4.30
2017-08-16T16:02:55.834Z,4.10
2017-08-16T16:05:22.239Z,4.60
2017-08-16T16:07:48.646Z,4.20
2017-08-16T16:10:15.042Z,4.00
2017-08-16T16:12:41.424Z,4.70
2017-08-16T16:15:07.800Z,4.00
2017-08-16T16:17:34.268Z,4.20
2017-08-16T16:20:02.715Z,4.43
2017-08-16T16:22:29.590Z,4.30
2017-08-16T16:24:56.602Z,4.83
2017-08-16T16:27:23.125Z,4.10
2017-08-16T16:29:49.729Z,5.03
2017-08-16T16:32:16.176Z,4.20
2017-08-16T16:34:42.570Z,7.20
2017-08-16T16:37:08.945Z,7.67
2017-08-16T16:39:35.372Z,7.57
2017-08-16T16:42:01.759Z,8.70
2017-08-16T16:44:28.261Z,7.70
2017-08-16T16:46:54.659Z,7.23
2017-08-16T16:49:21.056Z,7.53
2017-08-16T16:51:47.425Z,7.63
2017-08-16T16:54:13.804Z,8.40
2017-08-16T16:56:40.548Z,8.27
2017-08-16T16:59:07.506Z,8.40
2017-08-16T17:01:34.499Z,8.43
2017-08-16T17:04:00.982Z,8.03
2017-08-16T17:06:27.827Z,8.40
2017-08-16T17:08:54.343Z,8.27
2017-08-16T17:11:20.742Z,9.10
2017-08-16T17:13:47.156Z,9.30
2017-08-16T17:16:13.608Z,8.70
2017-08-16T17:18:40.820Z,8.73
2017-08-16T17:21:07.331Z,7.57
2017-08-16T17:23:33.831Z,8.70
2017-08-16T17:26:00.281Z,9.13
2017-08-16T17:28:27.392Z,12.37
2017-08-16T17:30:54.167Z,10.63
2017-08-16T17:33:20.644Z,8.77
2017-08-16T17:35:47.023Z,7.93
2017-08-16T17:38:13.405Z,8.23
2017-08-16T17:40:40.706Z,8.10
2017-08-16T17:43:07.087Z,8.23
2017-08-16T17:45:33.504Z,7.70
2017-08-16T17:47:59.902Z,8.03
2017-08-16T17:50:26.314Z,7.90
2017-08-16T17:52:59.376Z,7.80
2017-08-16T18:11:41.076Z,22.13
2017-08-16T18:14:07.496Z,12.30
2017-08-16T18:16:33.872Z,7.70
2017-08-16T18:19:00.977Z,7.67
2017-08-16T18:21:29.035Z,8.27
2017-08-16T18:23:55.479Z,7.93
2017-08-16T18:26:22.365Z,7.50
2017-08-16T18:28:48.906Z,12.60
2017-08-16T18:31:15.386Z,8.83
2017-08-16T18:33:41.807Z,9.30
2017-08-16T18:36:08.217Z,7.80
2017-08-16T18:38:34.700Z,7.53
2017-08-16T18:41:01.560Z,8.13
2017-08-16T18:43:27.976Z,8.17
2017-08-16T18:45:55.644Z,8.20
2017-08-16T18:48:22.219Z,8.10
2017-08-16T18:50:49.209Z,7.97
2017-08-16T18:53:15.612Z,8.73
2017-08-16T18:55:42.066Z,8.33
2017-08-16T18:58:08.789Z,8.40
2017-08-16T19:00:35.237Z,9.00
2017-08-16T19:03:01.715Z,8.90
2017-08-16T19:05:28.129Z,9.43
2017-08-16T19:07:54.568Z,8.33
2017-08-16T19:10:21.625Z,9.30
2017-08-16T19:12:48.485Z,8.90
2017-08-16T19:15:14.977Z,8.70
2017-08-16T19:17:41.398Z,8.37
2017-08-16T19:20:08.116Z,8.90
2017-08-16T19:22:34.576Z,9.47
2017-08-16T19:25:01.049Z,10.03
2017-08-16T19:27:27.634Z,9.00
2017-08-16T19:29:55.217Z,9.40
2017-08-16T19:32:21.658Z,9.43
2017-08-16T19:34:48.802Z,10.63
2017-08-16T19:37:15.288Z,8.67
2017-08-16T19:39:41.689Z,9.30
2017-08-16T19:42:08.092Z,9.97
2017-08-16T19:44:34.530Z,9.03
2017-08-16T19:47:00.997Z,9.93
2017-08-16T19:49:27.393Z,9.50
2017-08-16T19:51:53.793Z,12.93
2017-08-16T19:54:20.182Z,10.23
2017-08-16T19:56:46.801Z,10.20
2017-08-16T19:59:13.187Z,9.90
2017-08-16T20:01:39.643Z,10.00
2017-08-16T20:04:06.044Z,8.93
2017-08-16T20:06:32.471Z,9.63
2017-08-16T20:08:58.869Z,10.13
2017-08-16T20:11:25.252Z,11.20
2017-08-16T20:13:51.636Z,9.87
2017-08-16T20:16:18.017Z,9.57
2017-08-16T20:18:44.420Z,9.30
2017-08-16T20:21:10.790Z,9.70
2017-08-16T20:23:37.633Z,11.00
2017-08-16T20:26:07.816Z,9.90
2017-08-16T20:28:34.325Z,9.23
2017-08-16T20:31:03.105Z,11.32
2017-08-16T20:33:29.621Z,11.40
2017-08-16T20:35:57.896Z,10.70
2017-08-16T20:38:25.762Z,10.20
2017-08-16T20:40:52.212Z,10.13
2017-08-16T20:43:20.421Z,10.97
2017-08-16T20:45:47.820Z,12.23
2017-08-16T20:48:14.346Z,12.33
2017-08-16T20:50:40.774Z,12.57
2017-08-16T20:53:08.224Z,12.40
2017-08-16T20:55:35.460Z,11.80
2017-08-16T20:58:01.897Z,10.27
2017-08-16T21:00:28.290Z,11.17
2017-08-16T21:02:54.634Z,13.90
2017-08-16T21:05:21.000Z,12.53
2017-08-16T21:07:47.469Z,11.50
2017-08-16T21:10:13.899Z,13.27
2017-08-16T21:12:41.334Z,13.60
2017-08-16T21:15:08.306Z,12.03
2017-08-16T21:17:34.732Z,12.90
2017-08-16T21:20:01.152Z,12.90
2017-08-16T21:22:27.572Z,12.90
2017-08-16T21:24:54.247Z,13.27
2017-08-16T21:27:20.670Z,14.07
2017-08-16T21:29:47.090Z,13.53
2017-08-16T21:32:13.509Z,13.73
2017-08-16T21:34:39.941Z,12.70
2017-08-16T21:37:06.535Z,14.33
2017-08-16T21:39:32.935Z,14.30
2017-08-16T21:41:59.345Z,12.10
2017-08-16T21:44:25.775Z,15.23
2017-08-16T21:46:52.178Z,15.77
2017-08-16T21:49:18.561Z,15.37
2017-08-16T21:51:44.959Z,15.03
2017-08-16T21:54:11.358Z,15.80
2017-08-16T21:56:37.757Z,15.00
2017-08-16T21:59:04.158Z,14.17
2017-08-16T22:01:30.552Z,11.47
2017-08-16T22:03:56.949Z,13.30
2017-08-16T22:06:23.357Z,12.70
2017-08-16T22:08:50.239Z,12.53
2017-08-16T22:11:16.701Z,12.73
2017-08-16T22:13:43.164Z,13.10
2017-08-16T22:16:09.613Z,13.80
2017-08-16T22:18:36.073Z,13.10
2017-08-16T22:21:02.463Z,14.70
2017-08-16T22:23:28.854Z,11.97
2017-08-16T22:25:55.210Z,15.17
2017-08-16T22:28:21.616Z,14.43
2017-08-16T22:30:48.008Z,14.50
2017-08-16T22:33:14.382Z,16.10
2017-08-16T22:35:40.760Z,14.43
2017-08-16T22:38:07.155Z,14.03
2017-08-16T22:40:33.592Z,14.30
2017-08-16T22:43:00.000Z,16.30
2017-08-16T22:45:26.375Z,15.80
2017-08-16T22:47:52.790Z,15.93
2017-08-16T22:50:19.160Z,18.00
2017-08-16T22:52:45.507Z,16.00
2017-08-16T22:55:11.884Z,15.40
2017-08-16T22:57:38.265Z,15.80
2017-08-16T23:00:04.689Z,13.87
2017-08-16T23:02:31.101Z,14.43
2017-08-16T23:04:57.473Z,14.43
2017-08-16T23:07:23.854Z,15.90
2017-08-16T23:09:50.250Z,17.90
2017-08-16T23:12:16.629Z,16.20
2017-08-16T23:14:43.027Z,15.10
2017-08-16T23:17:09.450Z,15.73
2017-08-16T23:19:35.837Z,14.83
2017-08-16T23:22:02.244Z,14.40
2017-08-16T23:24:28.660Z,13.87
2017-08-16T23:26:55.080Z,15.33
2017-08-16T23:29:21.476Z,14.80
2017-08-16T23:31:47.868Z,13.20
2017-08-16T23:34:14.268Z,13.83
2017-08-16T23:36:45.943Z,16.00
2017-08-16T23:39:12.486Z,13.73
2017-08-16T23:41:45.112Z,13.83
2017-08-16T23:44:11.791Z,14.03
2017-08-16T23:46:40.378Z,15.00
2017-08-16T23:49:07.778Z,13.33
2017-08-16T23:51:39.277Z,13.70
2017-08-16T23:54:10.835Z,14.00
2017-08-16T23:56:38.010Z,13.87
2017-08-16T23:59:04.358Z,14.30
